sensor_id;sensor_type;location;lat;lon;timestamp;P1;durP1;ratioP1;P2;durP2;ratioP2
78674;SDS011;67990;59.826;30.108;2023-03-13T00:01:19;1.42;;;0.20;;
78674;SDS011;67990;59.826;30.108;2023-03-13T00:03:48;3.08;;;0.30;;
78674;SDS011;67990;59.826;30.108;2023-03-13T00:06:15;2.17;;;0.30;;
78674;SDS011;67990;59.826;30.108;2023-03-13T00:08:43;1.55;;;0.20;;
78674;SDS011;67990;59.826;30.108;2023-03-13T00:11:11;1.60;;;0.20;;
78674;SDS011;67990;59.826;30.108;2023-03-13T00:13:39;2.60;;;0.20;;
78674;SDS011;67990;59.826;30.108;2023-03-13T00:16:07;1.27;;;0.20;;
78674;SDS011;67990;59.826;30.108;2023-03-13T00:18:37;1.80;;;0.20;;
78674;SDS011;67990;59.826;30.108;2023-03-13T00:21:05;1.55;;;0.20;;
78674;SDS011;67990;59.826;30.108;2023-03-13T00:23:34;1.60;;;0.10;;
78674;SDS011;67990;59.826;30.108;2023-03-13T00:26:04;3.08;;;0.30;;
78674;SDS011;67990;59.826;30.108;2023-03-13T00:28:33;1.52;;;0.20;;
78674;SDS011;67990;59.826;30.108;2023-03-13T00:31:01;1.67;;;0.20;;
78674;SDS011;67990;59.826;30.108;2023-03-13T00:33:30;1.42;;;0.20;;
78674;SDS011;67990;59.826;30.108;2023-03-13T00:35:59;1.87;;;0.20;;
78674;SDS011;67990;59.826;30.108;2023-03-13T00:38:27;1.55;;;0.20;;
78674;SDS011;67990;59.826;30.108;2023-03-13T00:40:58;1.40;;;0.20;;
78674;SDS011;67990;59.826;30.108;2023-03-13T00:43:26;1.40;;;0.17;;
78674;SDS011;67990;59.826;30.108;2023-03-13T00:45:53;2.28;;;0.20;;
78674;SDS011;67990;59.826;30.108;2023-03-13T00:48:21;1.40;;;0.20;;
78674;SDS011;67990;59.826;30.108;2023-03-13T00:50:48;2.25;;;0.20;;
78674;SDS011;67990;59.826;30.108;2023-03-13T00:53:17;2.15;;;0.20;;
78674;SDS011;67990;59.826;30.108;2023-03-13T00:55:51;1.60;;;0.20;;
78674;SDS011;67990;59.826;30.108;2023-03-13T00:58:20;1.63;;;0.20;;
78674;SDS011;67990;59.826;30.108;2023-03-13T01:00:48;2.77;;;0.20;;
78674;SDS011;67990;59.826;30.108;2023-03-13T01:03:15;1.95;;;0.20;;
78674;SDS011;67990;59.826;30.108;2023-03-13T01:05:43;1.77;;;0.20;;
78674;SDS011;67990;59.826;30.108;2023-03-13T01:08:10;2.50;;;0.30;;
78674;SDS011;67990;59.826;30.108;2023-03-13T01:10:38;1.63;;;0.30;;
78674;SDS011;67990;59.826;30.108;2023-03-13T01:13:06;1.40;;;0.20;;
78674;SDS011;67990;59.826;30.108;2023-03-13T01:15:34;2.47;;;0.17;;
78674;SDS011;67990;59.826;30.108;2023-03-13T01:18:01;1.02;;;0.10;;
78674;SDS011;67990;59.826;30.108;2023-03-13T01:20:28;1.30;;;0.20;;
78674;SDS011;67990;59.826;30.108;2023-03-13T01:22:56;1.65;;;0.20;;
78674;SDS011;67990;59.826;30.108;2023-03-13T01:25:23;1.60;;;0.20;;
78674;SDS011;67990;59.826;30.108;2023-03-13T01:27:52;1.52;;;0.10;;
78674;SDS011;67990;59.826;30.108;2023-03-13T01:30:20;1.35;;;0.20;;
78674;SDS011;67990;59.826;30.108;2023-03-13T01:32:47;1.35;;;0.25;;
78674;SDS011;67990;59.826;30.108;2023-03-13T01:35:15;1.13;;;0.20;;
78674;SDS011;67990;59.826;30.108;2023-03-13T01:37:42;0.80;;;0.10;;
78674;SDS011;67990;59.826;30.108;2023-03-13T01:40:10;1.40;;;0.20;;
78674;SDS011;67990;59.826;30.108;2023-03-13T01:42:50;1.60;;;0.20;;
78674;SDS011;67990;59.826;30.108;2023-03-13T01:48:33;1.17;;;0.10;;
78674;SDS011;67990;59.826;30.108;2023-03-13T01:51:07;1.93;;;0.20;;
78674;SDS011;67990;59.826;30.108;2023-03-13T01:53:37;1.45;;;0.20;;
78674;SDS011;67990;59.826;30.108;2023-03-13T01:56:10;2.47;;;0.30;;
78674;SDS011;67990;59.826;30.108;2023-03-13T01:58:44;1.55;;;0.20;;
78674;SDS011;67990;59.826;30.108;2023-03-13T02:01:13;1.50;;;0.20;;
78674;SDS011;67990;59.826;30.108;2023-03-13T02:03:41;0.97;;;0.10;;
78674;SDS011;67990;59.826;30.108;2023-03-13T02:06:09;1.40;;;0.20;;
78674;SDS011;67990;59.826;30.108;2023-03-13T02:08:39;2.22;;;0.30;;
78674;SDS011;67990;59.826;30.108;2023-03-13T02:11:11;3.08;;;0.30;;
78674;SDS011;67990;59.826;30.108;2023-03-13T02:13:48;1.52;;;0.20;;
78674;SDS011;67990;59.826;30.108;2023-03-13T02:16:16;2.47;;;0.30;;
78674;SDS011;67990;59.826;30.108;2023-03-13T02:18:47;1.55;;;0.20;;
78674;SDS011;67990;59.826;30.108;2023-03-13T02:21:15;1.90;;;0.20;;
78674;SDS011;67990;59.826;30.108;2023-03-13T02:23:52;1.98;;;0.20;;
78674;SDS011;67990;59.826;30.108;2023-03-13T02:26:25;2.13;;;0.20;;
78674;SDS011;67990;59.826;30.108;2023-03-13T02:28:53;2.03;;;0.20;;
78674;SDS011;67990;59.826;30.108;2023-03-13T02:31:20;1.27;;;0.20;;
78674;SDS011;67990;59.826;30.108;2023-03-13T02:33:47;2.97;;;0.22;;
78674;SDS011;67990;59.826;30.108;2023-03-13T02:36:17;1.67;;;0.30;;
78674;SDS011;67990;59.826;30.108;2023-03-13T02:38:47;1.83;;;0.20;;
78674;SDS011;67990;59.826;30.108;2023-03-13T02:41:17;2.47;;;0.20;;
78674;SDS011;67990;59.826;30.108;2023-03-13T02:43:48;1.38;;;0.15;;
78674;SDS011;67990;59.826;30.108;2023-03-13T02:46:16;1.52;;;0.20;;
78674;SDS011;67990;59.826;30.108;2023-03-13T02:48:48;1.40;;;0.10;;
78674;SDS011;67990;59.826;30.108;2023-03-13T02:51:17;1.30;;;0.13;;
78674;SDS011;67990;59.826;30.108;2023-03-13T02:53:49;0.87;;;0.10;;
78674;SDS011;67990;59.826;30.108;2023-03-13T02:56:19;1.10;;;0.10;;
78674;SDS011;67990;59.826;30.108;2023-03-13T02:58:51;1.10;;;0.20;;
78674;SDS011;67990;59.826;30.108;2023-03-13T03:01:22;1.15;;;0.10;;
78674;SDS011;67990;59.826;30.108;2023-03-13T03:03:50;1.75;;;0.20;;
78674;SDS011;67990;59.826;30.108;2023-03-13T03:06:17;1.10;;;0.10;;
78674;SDS011;67990;59.826;30.108;2023-03-13T03:08:45;1.00;;;0.10;;
78674;SDS011;67990;59.826;30.108;2023-03-13T03:11:12;2.50;;;0.20;;
78674;SDS011;67990;59.826;30.108;2023-03-13T03:13:42;1.40;;;0.10;;
78674;SDS011;67990;59.826;30.108;2023-03-13T03:16:11;1.83;;;0.22;;
78674;SDS011;67990;59.826;30.108;2023-03-13T03:18:43;1.20;;;0.10;;
78674;SDS011;67990;59.826;30.108;2023-03-13T03:21:10;1.23;;;0.20;;
78674;SDS011;67990;59.826;30.108;2023-03-13T03:23:38;1.17;;;0.20;;
78674;SDS011;67990;59.826;30.108;2023-03-13T03:26:06;1.90;;;0.30;;
78674;SDS011;67990;59.826;30.108;2023-03-13T03:28:34;1.58;;;0.20;;
78674;SDS011;67990;59.826;30.108;2023-03-13T03:31:06;1.60;;;0.10;;
78674;SDS011;67990;59.826;30.108;2023-03-13T03:33:37;0.95;;;0.10;;
78674;SDS011;67990;59.826;30.108;2023-03-13T03:36:08;0.90;;;0.10;;
78674;SDS011;67990;59.826;30.108;2023-03-13T03:38:38;5.13;;;0.20;;
78674;SDS011;67990;59.826;30.108;2023-03-13T03:41:07;1.20;;;0.20;;
78674;SDS011;67990;59.826;30.108;2023-03-13T03:43:36;1.53;;;0.20;;
78674;SDS011;67990;59.826;30.108;2023-03-13T03:46:05;2.00;;;0.10;;
78674;SDS011;67990;59.826;30.108;2023-03-13T03:48:33;1.95;;;0.20;;
78674;SDS011;67990;59.826;30.108;2023-03-13T03:51:05;3.17;;;0.55;;
78674;SDS011;67990;59.826;30.108;2023-03-13T03:53:36;2.05;;;0.32;;
78674;SDS011;67990;59.826;30.108;2023-03-13T03:56:04;1.20;;;0.20;;
78674;SDS011;67990;59.826;30.108;2023-03-13T03:58:31;0.90;;;0.10;;
78674;SDS011;67990;59.826;30.108;2023-03-13T04:01:07;1.67;;;0.20;;
78674;SDS011;67990;59.826;30.108;2023-03-13T04:03:37;1.52;;;0.10;;
78674;SDS011;67990;59.826;30.108;2023-03-13T04:06:05;1.35;;;0.10;;
78674;SDS011;67990;59.826;30.108;2023-03-13T04:08:33;1.50;;;0.20;;
78674;SDS011;67990;59.826;30.108;2023-03-13T04:11:01;1.00;;;0.10;;
78674;SDS011;67990;59.826;30.108;2023-03-13T04:13:32;1.20;;;0.10;;
78674;SDS011;67990;59.826;30.108;2023-03-13T04:15:59;1.25;;;0.20;;
78674;SDS011;67990;59.826;30.108;2023-03-13T04:18:31;1.15;;;0.22;;
78674;SDS011;67990;59.826;30.108;2023-03-13T04:20:59;1.77;;;0.10;;
78674;SDS011;67990;59.826;30.108;2023-03-13T04:23:29;1.52;;;0.22;;
78674;SDS011;67990;59.826;30.108;2023-03-13T04:25:57;1.17;;;0.20;;
78674;SDS011;67990;59.826;30.108;2023-03-13T04:28:24;1.33;;;0.13;;
78674;SDS011;67990;59.826;30.108;2023-03-13T04:30:52;1.77;;;0.10;;
78674;SDS011;67990;59.826;30.108;2023-03-13T04:33:39;2.07;;;0.13;;
78674;SDS011;67990;59.826;30.108;2023-03-13T04:36:15;1.90;;;0.20;;
78674;SDS011;67990;59.826;30.108;2023-03-13T04:38:57;0.93;;;0.10;;
78674;SDS011;67990;59.826;30.108;2023-03-13T04:41:48;0.98;;;0.10;;
78674;SDS011;67990;59.826;30.108;2023-03-13T04:44:32;2.38;;;0.30;;
78674;SDS011;67990;59.826;30.108;2023-03-13T04:47:23;2.63;;;0.20;;
78674;SDS011;67990;59.826;30.108;2023-03-13T04:50:09;1.52;;;0.20;;
78674;SDS011;67990;59.826;30.108;2023-03-13T04:52:44;2.72;;;0.68;;
78674;SDS011;67990;59.826;30.108;2023-03-13T04:55:27;2.35;;;0.30;;
78674;SDS011;67990;59.826;30.108;2023-03-13T04:58:23;8.40;;;2.03;;
78674;SDS011;67990;59.826;30.108;2023-03-13T05:01:29;8.10;;;1.97;;
78674;SDS011;67990;59.826;30.108;2023-03-13T05:04:21;8.45;;;2.03;;
78674;SDS011;67990;59.826;30.108;2023-03-13T05:07:24;13.60;;;3.65;;
78674;SDS011;67990;59.826;30.108;2023-03-13T05:10:07;32.20;;;8.80;;
78674;SDS011;67990;59.826;30.108;2023-03-13T05:13:05;57.67;;;14.60;;
78674;SDS011;67990;59.826;30.108;2023-03-13T05:15:59;131.43;;;30.60;;
78674;SDS011;67990;59.826;30.108;2023-03-13T05:18:45;202.60;;;50.45;;
78674;SDS011;67990;59.826;30.108;2023-03-13T05:21:25;141.68;;;37.90;;
78674;SDS011;67990;59.826;30.108;2023-03-13T05:24:24;34.45;;;11.98;;
78674;SDS011;67990;59.826;30.108;2023-03-13T05:27:15;51.15;;;14.63;;
78674;SDS011;67990;59.826;30.108;2023-03-13T05:30:10;13.37;;;3.03;;
78674;SDS011;67990;59.826;30.108;2023-03-13T05:32:58;3.88;;;0.80;;
78674;SDS011;67990;59.826;30.108;2023-03-13T05:35:44;4.10;;;0.80;;
78674;SDS011;67990;59.826;30.108;2023-03-13T05:38:23;9.35;;;2.05;;
78674;SDS011;67990;59.826;30.108;2023-03-13T05:41:09;4.45;;;0.82;;
78674;SDS011;67990;59.826;30.108;2023-03-13T05:43:42;8.87;;;1.40;;
78674;SDS011;67990;59.826;30.108;2023-03-13T05:46:29;15.63;;;3.88;;
78674;SDS011;67990;59.826;30.108;2023-03-13T05:49:28;8.38;;;2.15;;
78674;SDS011;67990;59.826;30.108;2023-03-13T05:51:58;5.75;;;1.13;;
78674;SDS011;67990;59.826;30.108;2023-03-13T05:54:31;4.85;;;0.88;;
78674;SDS011;67990;59.826;30.108;2023-03-13T05:57:17;3.93;;;0.40;;
78674;SDS011;67990;59.826;30.108;2023-03-13T06:00:17;3.47;;;0.60;;
78674;SDS011;67990;59.826;30.108;2023-03-13T06:02:58;4.53;;;0.80;;
78674;SDS011;67990;59.826;30.108;2023-03-13T06:05:32;3.05;;;0.40;;
78674;SDS011;67990;59.826;30.108;2023-03-13T06:08:02;3.75;;;0.85;;
78674;SDS011;67990;59.826;30.108;2023-03-13T06:10:30;3.17;;;0.60;;
78674;SDS011;67990;59.826;30.108;2023-03-13T06:12:58;3.60;;;0.65;;
78674;SDS011;67990;59.826;30.108;2023-03-13T06:15:30;4.38;;;0.90;;
78674;SDS011;67990;59.826;30.108;2023-03-13T06:18:19;4.22;;;0.90;;
78674;SDS011;67990;59.826;30.108;2023-03-13T06:20:47;29.80;;;8.35;;
78674;SDS011;67990;59.826;30.108;2023-03-13T06:23:14;16.30;;;5.60;;
78674;SDS011;67990;59.826;30.108;2023-03-13T06:25:45;9.40;;;2.40;;
78674;SDS011;67990;59.826;30.108;2023-03-13T06:28:13;23.08;;;6.35;;
78674;SDS011;67990;59.826;30.108;2023-03-13T06:30:40;21.23;;;6.50;;
78674;SDS011;67990;59.826;30.108;2023-03-13T06:33:08;12.82;;;3.78;;
78674;SDS011;67990;59.826;30.108;2023-03-13T06:35:37;18.70;;;5.83;;
78674;SDS011;67990;59.826;30.108;2023-03-13T06:38:06;23.00;;;6.28;;
78674;SDS011;67990;59.826;30.108;2023-03-13T06:40:33;15.25;;;4.22;;
78674;SDS011;67990;59.826;30.108;2023-03-13T06:43:00;17.65;;;3.08;;
78674;SDS011;67990;59.826;30.108;2023-03-13T06:45:27;10.57;;;2.47;;
78674;SDS011;67990;59.826;30.108;2023-03-13T06:47:54;12.07;;;4.13;;
78674;SDS011;67990;59.826;30.108;2023-03-13T06:50:21;13.23;;;4.18;;
78674;SDS011;67990;59.826;30.108;2023-03-13T06:52:50;14.35;;;4.25;;
78674;SDS011;67990;59.826;30.108;2023-03-13T06:55:17;12.13;;;3.80;;
78674;SDS011;67990;59.826;30.108;2023-03-13T06:57:48;8.40;;;3.00;;
78674;SDS011;67990;59.826;30.108;2023-03-13T07:00:16;10.70;;;4.47;;
78674;SDS011;67990;59.826;30.108;2023-03-13T07:02:43;7.57;;;3.30;;
78674;SDS011;67990;59.826;30.108;2023-03-13T07:05:11;9.13;;;3.80;;
78674;SDS011;67990;59.826;30.108;2023-03-13T07:07:39;4.22;;;1.23;;
78674;SDS011;67990;59.826;30.108;2023-03-13T07:10:08;4.10;;;1.60;;
78674;SDS011;67990;59.826;30.108;2023-03-13T07:12:36;6.53;;;2.43;;
78674;SDS011;67990;59.826;30.108;2023-03-13T07:15:04;9.23;;;4.20;;
78674;SDS011;67990;59.826;30.108;2023-03-13T07:17:32;4.38;;;1.92;;
78674;SDS011;67990;59.826;30.108;2023-03-13T07:19:59;8.00;;;4.10;;
78674;SDS011;67990;59.826;30.108;2023-03-13T07:22:26;5.90;;;3.22;;
78674;SDS011;67990;59.826;30.108;2023-03-13T07:24:54;7.17;;;3.00;;
78674;SDS011;67990;59.826;30.108;2023-03-13T07:27:22;42.28;;;13.57;;
78674;SDS011;67990;59.826;30.108;2023-03-13T07:29:49;17.17;;;5.88;;
78674;SDS011;67990;59.826;30.108;2023-03-13T07:32:16;11.75;;;3.28;;
78674;SDS011;67990;59.826;30.108;2023-03-13T07:34:44;8.10;;;2.75;;
78674;SDS011;67990;59.826;30.108;2023-03-13T07:37:11;8.43;;;3.60;;
78674;SDS011;67990;59.826;30.108;2023-03-13T07:39:39;8.85;;;2.95;;
78674;SDS011;67990;59.826;30.108;2023-03-13T07:42:07;9.75;;;3.42;;
78674;SDS011;67990;59.826;30.108;2023-03-13T07:44:37;10.85;;;3.40;;
78674;SDS011;67990;59.826;30.108;2023-03-13T07:47:04;8.00;;;3.85;;
78674;SDS011;67990;59.826;30.108;2023-03-13T07:49:31;28.67;;;15.40;;
78674;SDS011;67990;59.826;30.108;2023-03-13T07:52:03;19.65;;;11.07;;
78674;SDS011;67990;59.826;30.108;2023-03-13T07:54:31;19.75;;;9.82;;
78674;SDS011;67990;59.826;30.108;2023-03-13T07:56:58;27.73;;;13.45;;
78674;SDS011;67990;59.826;30.108;2023-03-13T07:59:26;5.65;;;2.00;;
78674;SDS011;67990;59.826;30.108;2023-03-13T08:01:55;16.87;;;4.90;;
78674;SDS011;67990;59.826;30.108;2023-03-13T08:04:22;12.75;;;4.15;;
78674;SDS011;67990;59.826;30.108;2023-03-13T08:06:49;8.27;;;2.60;;
78674;SDS011;67990;59.826;30.108;2023-03-13T08:09:19;5.20;;;2.00;;
78674;SDS011;67990;59.826;30.108;2023-03-13T08:11:46;5.03;;;2.60;;
78674;SDS011;67990;59.826;30.108;2023-03-13T08:14:13;2.70;;;0.93;;
78674;SDS011;67990;59.826;30.108;2023-03-13T08:16:40;4.05;;;1.27;;
78674;SDS011;67990;59.826;30.108;2023-03-13T08:19:09;3.78;;;1.70;;
78674;SDS011;67990;59.826;30.108;2023-03-13T08:21:36;4.43;;;1.50;;
78674;SDS011;67990;59.826;30.108;2023-03-13T08:24:05;3.95;;;1.30;;
78674;SDS011;67990;59.826;30.108;2023-03-13T08:26:35;6.10;;;2.20;;
78674;SDS011;67990;59.826;30.108;2023-03-13T08:29:04;4.20;;;1.73;;
78674;SDS011;67990;59.826;30.108;2023-03-13T08:31:34;11.82;;;7.30;;
78674;SDS011;67990;59.826;30.108;2023-03-13T08:34:02;24.80;;;14.90;;
78674;SDS011;67990;59.826;30.108;2023-03-13T08:36:32;9.30;;;5.78;;
78674;SDS011;67990;59.826;30.108;2023-03-13T08:39:01;4.17;;;2.10;;
78674;SDS011;67990;59.826;30.108;2023-03-13T08:41:31;3.78;;;1.25;;
78674;SDS011;67990;59.826;30.108;2023-03-13T08:44:00;2.85;;;0.68;;
78674;SDS011;67990;59.826;30.108;2023-03-13T08:46:29;2.92;;;0.50;;
78674;SDS011;67990;59.826;30.108;2023-03-13T08:48:57;3.40;;;0.93;;
78674;SDS011;67990;59.826;30.108;2023-03-13T08:51:25;2.80;;;1.03;;
78674;SDS011;67990;59.826;30.108;2023-03-13T08:53:55;3.30;;;0.90;;
78674;SDS011;67990;59.826;30.108;2023-03-13T08:56:23;2.20;;;0.60;;
78674;SDS011;67990;59.826;30.108;2023-03-13T08:58:52;2.05;;;0.40;;
78674;SDS011;67990;59.826;30.108;2023-03-13T09:01:22;2.10;;;0.57;;
78674;SDS011;67990;59.826;30.108;2023-03-13T09:03:51;3.57;;;1.77;;
78674;SDS011;67990;59.826;30.108;2023-03-13T09:06:18;2.75;;;0.60;;
78674;SDS011;67990;59.826;30.108;2023-03-13T09:08:46;3.80;;;1.25;;
78674;SDS011;67990;59.826;30.108;2023-03-13T09:11:16;2.92;;;1.10;;
78674;SDS011;67990;59.826;30.108;2023-03-13T09:13:45;4.90;;;2.05;;
78674;SDS011;67990;59.826;30.108;2023-03-13T09:16:14;3.17;;;0.40;;
78674;SDS011;67990;59.826;30.108;2023-03-13T09:18:43;3.20;;;0.32;;
78674;SDS011;67990;59.826;30.108;2023-03-13T09:21:11;1.83;;;0.30;;
78674;SDS011;67990;59.826;30.108;2023-03-13T09:23:40;1.67;;;0.20;;
78674;SDS011;67990;59.826;30.108;2023-03-13T09:26:07;1.85;;;0.30;;
78674;SDS011;67990;59.826;30.108;2023-03-13T09:28:36;1.83;;;0.40;;
78674;SDS011;67990;59.826;30.108;2023-03-13T09:31:06;3.65;;;0.30;;
78674;SDS011;67990;59.826;30.108;2023-03-13T09:33:34;1.63;;;0.20;;
78674;SDS011;67990;59.826;30.108;2023-03-13T09:36:01;2.42;;;0.40;;
78674;SDS011;67990;59.826;30.108;2023-03-13T09:38:28;2.42;;;0.30;;
78674;SDS011;67990;59.826;30.108;2023-03-13T09:40:59;2.67;;;0.37;;
78674;SDS011;67990;59.826;30.108;2023-03-13T09:43:33;1.60;;;0.20;;
78674;SDS011;67990;59.826;30.108;2023-03-13T09:46:10;2.72;;;0.30;;
78674;SDS011;67990;59.826;30.108;2023-03-13T09:48:44;1.85;;;0.20;;
78674;SDS011;67990;59.826;30.108;2023-03-13T09:51:16;2.33;;;0.40;;
78674;SDS011;67990;59.826;30.108;2023-03-13T09:53:48;2.77;;;0.20;;
78674;SDS011;67990;59.826;30.108;2023-03-13T09:56:21;2.05;;;0.20;;
78674;SDS011;67990;59.826;30.108;2023-03-13T09:58:54;2.05;;;0.30;;
78674;SDS011;67990;59.826;30.108;2023-03-13T10:01:25;8.70;;;3.97;;
78674;SDS011;67990;59.826;30.108;2023-03-13T10:03:57;19.58;;;8.90;;
78674;SDS011;67990;59.826;30.108;2023-03-13T10:06:32;14.80;;;6.47;;
78674;SDS011;67990;59.826;30.108;2023-03-13T10:09:07;17.83;;;7.30;;
78674;SDS011;67990;59.826;30.108;2023-03-13T10:11:46;23.15;;;10.95;;
78674;SDS011;67990;59.826;30.108;2023-03-13T10:14:24;10.32;;;4.55;;
78674;SDS011;67990;59.826;30.108;2023-03-13T10:16:58;5.90;;;1.67;;
78674;SDS011;67990;59.826;30.108;2023-03-13T10:19:32;3.03;;;1.07;;
78674;SDS011;67990;59.826;30.108;2023-03-13T10:22:03;4.10;;;1.60;;
78674;SDS011;67990;59.826;30.108;2023-03-13T10:24:40;3.50;;;0.90;;
78674;SDS011;67990;59.826;30.108;2023-03-13T10:27:11;3.42;;;1.00;;
78674;SDS011;67990;59.826;30.108;2023-03-13T10:29:42;3.15;;;0.50;;
78674;SDS011;67990;59.826;30.108;2023-03-13T10:32:10;2.30;;;0.70;;
78674;SDS011;67990;59.826;30.108;2023-03-13T10:34:49;2.60;;;0.88;;
78674;SDS011;67990;59.826;30.108;2023-03-13T10:37:20;2.30;;;0.90;;
78674;SDS011;67990;59.826;30.108;2023-03-13T10:39:49;2.47;;;0.52;;
78674;SDS011;67990;59.826;30.108;2023-03-13T10:42:19;2.90;;;1.20;;
78674;SDS011;67990;59.826;30.108;2023-03-13T10:44:51;3.30;;;0.70;;
78674;SDS011;67990;59.826;30.108;2023-03-13T10:47:22;2.00;;;0.50;;
78674;SDS011;67990;59.826;30.108;2023-03-13T10:49:50;2.80;;;0.70;;
78674;SDS011;67990;59.826;30.108;2023-03-13T10:52:31;2.90;;;0.60;;
78674;SDS011;67990;59.826;30.108;2023-03-13T10:55:01;2.53;;;0.50;;
78674;SDS011;67990;59.826;30.108;2023-03-13T10:57:30;1.20;;;0.20;;
78674;SDS011;67990;59.826;30.108;2023-03-13T11:00:02;2.35;;;0.40;;
78674;SDS011;67990;59.826;30.108;2023-03-13T11:02:36;4.25;;;0.57;;
78674;SDS011;67990;59.826;30.108;2023-03-13T11:05:27;1.65;;;0.30;;
78674;SDS011;67990;59.826;30.108;2023-03-13T11:07:57;2.40;;;0.68;;
78674;SDS011;67990;59.826;30.108;2023-03-13T11:10:36;2.20;;;0.50;;
78674;SDS011;67990;59.826;30.108;2023-03-13T11:13:03;2.83;;;0.50;;
78674;SDS011;67990;59.826;30.108;2023-03-13T11:15:34;3.65;;;0.75;;
78674;SDS011;67990;59.826;30.108;2023-03-13T11:18:10;3.13;;;0.30;;
78674;SDS011;67990;59.826;30.108;2023-03-13T11:20:43;2.45;;;0.32;;
78674;SDS011;67990;59.826;30.108;2023-03-13T11:23:14;2.07;;;0.30;;
78674;SDS011;67990;59.826;30.108;2023-03-13T11:25:49;3.08;;;0.57;;
78674;SDS011;67990;59.826;30.108;2023-03-13T11:28:34;3.05;;;0.47;;
78674;SDS011;67990;59.826;30.108;2023-03-13T11:31:14;2.03;;;0.30;;
78674;SDS011;67990;59.826;30.108;2023-03-13T11:33:50;2.65;;;0.30;;
78674;SDS011;67990;59.826;30.108;2023-03-13T11:36:25;1.67;;;0.20;;
78674;SDS011;67990;59.826;30.108;2023-03-13T11:38:59;1.60;;;0.20;;
78674;SDS011;67990;59.826;30.108;2023-03-13T11:41:44;2.03;;;0.20;;
78674;SDS011;67990;59.826;30.108;2023-03-13T11:44:25;2.30;;;0.30;;
78674;SDS011;67990;59.826;30.108;2023-03-13T11:47:03;1.30;;;0.20;;
78674;SDS011;67990;59.826;30.108;2023-03-13T11:52:49;2.88;;;0.20;;
78674;SDS011;67990;59.826;30.108;2023-03-13T11:55:28;2.75;;;0.20;;
78674;SDS011;67990;59.826;30.108;2023-03-13T11:58:21;2.55;;;0.20;;
78674;SDS011;67990;59.826;30.108;2023-03-13T12:00:58;1.98;;;0.30;;
78674;SDS011;67990;59.826;30.108;2023-03-13T12:03:32;1.20;;;0.20;;
78674;SDS011;67990;59.826;30.108;2023-03-13T12:06:03;2.17;;;0.30;;
78674;SDS011;67990;59.826;30.108;2023-03-13T12:08:39;2.42;;;0.20;;
78674;SDS011;67990;59.826;30.108;2023-03-13T12:11:12;2.80;;;0.20;;
78674;SDS011;67990;59.826;30.108;2023-03-13T12:13:44;1.77;;;0.20;;
78674;SDS011;67990;59.826;30.108;2023-03-13T12:16:18;2.67;;;0.30;;
78674;SDS011;67990;59.826;30.108;2023-03-13T12:18:50;2.47;;;0.20;;
78674;SDS011;67990;59.826;30.108;2023-03-13T12:21:20;1.77;;;0.30;;
78674;SDS011;67990;59.826;30.108;2023-03-13T12:23:56;2.90;;;0.25;;
78674;SDS011;67990;59.826;30.108;2023-03-13T12:26:32;1.02;;;0.10;;
78674;SDS011;67990;59.826;30.108;2023-03-13T12:29:10;1.80;;;0.20;;
78674;SDS011;67990;59.826;30.108;2023-03-13T12:31:46;1.60;;;0.17;;
78674;SDS011;67990;59.826;30.108;2023-03-13T12:34:21;2.60;;;0.40;;
78674;SDS011;67990;59.826;30.108;2023-03-13T12:36:54;2.25;;;0.30;;
78674;SDS011;67990;59.826;30.108;2023-03-13T12:39:33;2.13;;;0.30;;
78674;SDS011;67990;59.826;30.108;2023-03-13T12:42:08;22.63;;;4.20;;
78674;SDS011;67990;59.826;30.108;2023-03-13T12:44:55;3.97;;;0.60;;
78674;SDS011;67990;59.826;30.108;2023-03-13T12:47:25;23.98;;;4.30;;
78674;SDS011;67990;59.826;30.108;2023-03-13T12:50:04;7.47;;;1.02;;
78674;SDS011;67990;59.826;30.108;2023-03-13T12:56:10;1.70;;;0.10;;
78674;SDS011;67990;59.826;30.108;2023-03-13T12:58:48;4.68;;;0.60;;
78674;SDS011;67990;59.826;30.108;2023-03-13T13:01:20;4.45;;;0.80;;
78674;SDS011;67990;59.826;30.108;2023-03-13T13:03:56;11.60;;;2.80;;
78674;SDS011;67990;59.826;30.108;2023-03-13T13:06:27;3.65;;;0.65;;
78674;SDS011;67990;59.826;30.108;2023-03-13T13:09:16;7.90;;;1.73;;
78674;SDS011;67990;59.826;30.108;2023-03-13T13:11:48;3.75;;;0.50;;
78674;SDS011;67990;59.826;30.108;2023-03-13T13:20:33;10.23;;;2.00;;
78674;SDS011;67990;59.826;30.108;2023-03-13T13:32:38;35.95;;;10.85;;
78674;SDS011;67990;59.826;30.108;2023-03-13T13:35:23;17.77;;;4.40;;
78674;SDS011;67990;59.826;30.108;2023-03-13T13:37:52;19.43;;;4.57;;
78674;SDS011;67990;59.826;30.108;2023-03-13T13:41:21;15.68;;;2.92;;
78674;SDS011;67990;59.826;30.108;2023-03-13T13:46:48;4.97;;;0.95;;
78674;SDS011;67990;59.826;30.108;2023-03-13T13:49:17;15.63;;;3.28;;
78674;SDS011;67990;59.826;30.108;2023-03-13T13:54:52;9.50;;;1.85;;
78674;SDS011;67990;59.826;30.108;2023-03-13T13:57:24;4.07;;;0.57;;
78674;SDS011;67990;59.826;30.108;2023-03-13T13:59:53;6.53;;;0.95;;
78674;SDS011;67990;59.826;30.108;2023-03-13T14:02:29;7.13;;;0.93;;
78674;SDS011;67990;59.826;30.108;2023-03-13T14:05:02;5.63;;;1.30;;
78674;SDS011;67990;59.826;30.108;2023-03-13T14:07:46;7.00;;;1.50;;
78674;SDS011;67990;59.826;30.108;2023-03-13T14:10:24;3.70;;;0.43;;
78674;SDS011;67990;59.826;30.108;2023-03-13T14:12:58;15.93;;;5.07;;
78674;SDS011;67990;59.826;30.108;2023-03-13T14:15:27;7.25;;;1.63;;
78674;SDS011;67990;59.826;30.108;2023-03-13T14:17:56;5.17;;;0.50;;
78674;SDS011;67990;59.826;30.108;2023-03-13T14:20:30;2.20;;;0.20;;
78674;SDS011;67990;59.826;30.108;2023-03-13T14:22:59;1.83;;;0.28;;
78674;SDS011;67990;59.826;30.108;2023-03-13T14:25:28;2.13;;;0.20;;
78674;SDS011;67990;59.826;30.108;2023-03-13T14:28:20;2.13;;;0.30;;
78674;SDS011;67990;59.826;30.108;2023-03-13T14:30:49;2.13;;;0.20;;
78674;SDS011;67990;59.826;30.108;2023-03-13T14:33:17;2.90;;;0.22;;
78674;SDS011;67990;59.826;30.108;2023-03-13T14:35:46;3.42;;;0.30;;
78674;SDS011;67990;59.826;30.108;2023-03-13T14:38:15;2.13;;;0.20;;
78674;SDS011;67990;59.826;30.108;2023-03-13T14:40:45;2.78;;;0.22;;
78674;SDS011;67990;59.826;30.108;2023-03-13T14:43:17;3.97;;;0.40;;
78674;SDS011;67990;59.826;30.108;2023-03-13T14:45:48;3.75;;;0.40;;
78674;SDS011;67990;59.826;30.108;2023-03-13T14:48:18;3.17;;;0.63;;
78674;SDS011;67990;59.826;30.108;2023-03-13T14:50:48;5.15;;;0.90;;
78674;SDS011;67990;59.826;30.108;2023-03-13T14:53:17;3.40;;;0.73;;
78674;SDS011;67990;59.826;30.108;2023-03-13T14:55:47;3.97;;;0.70;;
78674;SDS011;67990;59.826;30.108;2023-03-13T14:58:36;2.63;;;0.40;;
78674;SDS011;67990;59.826;30.108;2023-03-13T15:01:11;3.38;;;0.70;;
78674;SDS011;67990;59.826;30.108;2023-03-13T15:03:46;4.40;;;0.57;;
78674;SDS011;67990;59.826;30.108;2023-03-13T15:06:17;4.82;;;0.70;;
78674;SDS011;67990;59.826;30.108;2023-03-13T15:08:48;7.50;;;1.43;;
78674;SDS011;67990;59.826;30.108;2023-03-13T15:15:52;14.18;;;3.13;;
78674;SDS011;67990;59.826;30.108;2023-03-13T15:18:20;18.30;;;3.50;;
78674;SDS011;67990;59.826;30.108;2023-03-13T15:20:49;10.05;;;3.08;;
78674;SDS011;67990;59.826;30.108;2023-03-13T15:23:17;11.80;;;3.00;;
78674;SDS011;67990;59.826;30.108;2023-03-13T15:25:45;10.40;;;3.30;;
78674;SDS011;67990;59.826;30.108;2023-03-13T15:28:14;9.93;;;3.65;;
78674;SDS011;67990;59.826;30.108;2023-03-13T15:30:43;13.70;;;3.80;;
78674;SDS011;67990;59.826;30.108;2023-03-13T15:33:14;9.85;;;3.42;;
78674;SDS011;67990;59.826;30.108;2023-03-13T15:35:42;10.33;;;3.13;;
78674;SDS011;67990;59.826;30.108;2023-03-13T15:38:11;15.70;;;4.40;;